Time;durP1;ratioP1;P1;durP2;ratioP2;P2;SDS_P1;SDS_P2;PMS_P1;PMS_P2;Temp;Humidity;BMP_temperature;BMP_pressure;BME280_temperature;BME280_humidity;BME280_pressure;Samples;Min_cycle;Max_cycle;Signal;HPM_P1;HPM_P2
2024/02/21 00:00:38;;;;;;;;;;;;;;;3.41;88.95;97032.84;7395534;19;1120;-65
2024/02/21 00:03:07;;;;;;;;;;;;;;;3.41;88.41;97036.25;7395464;19;1144;-69
2024/02/21 00:05:35;;;;;;;;;;;;;;;3.32;87.69;97030.25;7395543;19;1786;-69
2024/02/21 00:08:07;;;;;;;;;;;;;;;3.14;88.30;97019.94;7396109;19;1759;-67
2024/02/21 00:10:35;;;;;;;;;;;;;;;3.03;89.05;97021.66;7395322;19;1020;-66
2024/02/21 00:13:04;;;;;;;;;;;;;;;2.90;90.33;97016.50;7395723;19;1857;-68
2024/02/21 00:15:33;;;;;;;;;;;;;;;2.96;91.91;97017.34;7396032;19;1624;-65
2024/02/21 00:18:01;;;;;;;;;;;;;;;2.95;91.90;97019.06;7395642;19;1805;-68
2024/02/21 00:20:30;;;;;;;;;;;;;;;3.00;92.48;97019.94;7402706;19;1016;-67
2024/02/21 00:22:59;;;;;;;;;;;;;;;3.05;92.49;97019.94;7402888;19;950;-70
2024/02/21 00:25:30;;;;;;;;;;;;;;;3.12;92.47;97018.19;7402495;19;1915;-65
2024/02/21 00:27:58;;;;;;;;;;;;;;;3.15;92.09;97010.44;7402693;19;1047;-69
2024/02/21 00:30:27;;;;;;;;;;;;;;;3.15;91.48;97013.91;7402131;19;1119;-70
2024/02/21 00:32:55;;;;;;;;;;;;;;;3.21;90.82;97006.97;7402809;19;1732;-66
2024/02/21 00:35:24;;;;;;;;;;;;;;;3.20;90.80;97011.31;7399754;19;1833;-70
2024/02/21 00:37:53;;;;;;;;;;;;;;;3.21;90.79;97010.44;7401882;19;1335;-69
2024/02/21 00:40:22;;;;;;;;;;;;;;;3.19;90.74;97012.16;7400538;19;1808;-70
2024/02/21 00:42:54;;;;;;;;;;;;;;;3.11;90.59;97009.59;7401758;19;1009;-67
2024/02/21 00:45:23;;;;;;;;;;;;;;;3.16;90.63;97001.81;7401578;19;1112;-70
2024/02/21 00:47:51;;;;;;;;;;;;;;;3.11;90.89;97001.84;7401528;19;1050;-67
2024/02/21 00:50:20;;;;;;;;;;;;;;;3.14;91.54;96993.22;7401967;19;1032;-64
2024/02/21 00:52:48;;;;;;;;;;;;;;;3.21;90.78;96994.94;7401440;19;1104;-64
2024/02/21 00:55:17;;;;;;;;;;;;;;;3.20;91.14;96997.50;7399172;19;1846;-73
2024/02/21 00:57:45;;;;;;;;;;;;;;;3.08;91.02;97006.16;7401263;19;1388;-64
2024/02/21 01:00:17;;;;;;;;;;;;;;;3.17;91.71;97003.56;7401531;19;1922;-69
2024/02/21 01:02:45;;;;;;;;;;;;;;;3.21;91.27;97005.28;7401510;19;1696;-69
2024/02/21 01:05:14;;;;;;;;;;;;;;;3.26;91.23;97003.56;7401339;19;1009;-69
2024/02/21 01:07:42;;;;;;;;;;;;;;;3.29;91.27;97007.84;7400895;19;1052;-65
2024/02/21 01:10:11;;;;;;;;;;;;;;;3.25;91.27;97006.16;7401145;19;1792;-71
2024/02/21 01:12:40;;;;;;;;;;;;;;;3.22;91.77;97003.56;7401262;19;1790;-65
2024/02/21 01:15:09;;;;;;;;;;;;;;;3.19;91.74;97004.41;7399534;19;1841;-71
2024/02/21 01:17:41;;;;;;;;;;;;;;;3.21;92.18;97005.28;7401182;19;1085;-69
2024/02/21 01:20:10;;;;;;;;;;;;;;;3.26;93.17;97005.28;7400540;19;1112;-68
2024/02/21 01:22:39;;;;;;;;;;;;;;;3.29;93.04;97010.44;7401030;19;1814;-65
2024/02/21 01:25:07;;;;;;;;;;;;;;;3.34;92.92;97000.94;7400769;19;1906;-67
2024/02/21 01:27:36;;;;;;;;;;;;;;;3.32;92.39;97004.41;7400298;19;1049;-68
2024/02/21 01:30:05;;;;;;;;;;;;;;;3.37;91.89;97002.69;7398826;19;1812;-67
2024/02/21 01:32:34;;;;;;;;;;;;;;;3.36;91.52;97004.38;7400414;19;1004;-68
2024/02/21 01:35:05;;;;;;;;;;;;;;;3.35;91.39;96994.91;7398494;19;1829;-64
2024/02/21 01:37:33;;;;;;;;;;;;;;;3.35;91.01;96992.34;7399859;19;1025;-66
2024/02/21 01:40:02;;;;;;;;;;;;;;;3.37;90.73;96987.16;7399030;19;1800;-68
2024/02/21 01:42:31;;;;;;;;;;;;;;;3.40;90.58;96976.78;7399843;19;1088;-68
2024/02/21 01:45:00;;;;;;;;;;;;;;;3.43;90.90;96986.28;7400151;19;1555;-67
2024/02/21 01:47:28;;;;;;;;;;;;;;;3.42;90.53;96980.22;7399541;19;1053;-69
2024/02/21 01:49:57;;;;;;;;;;;;;;;3.45;90.42;96987.13;7399785;19;1816;-70
2024/02/21 01:52:28;;;;;;;;;;;;;;;3.43;90.36;96983.69;7399901;19;1171;-68
2024/02/21 01:54:57;;;;;;;;;;;;;;;3.42;89.87;96980.22;7398793;19;1845;-66
2024/02/21 01:57:26;;;;;;;;;;;;;;;3.40;89.58;96981.94;7399307;19;1013;-70
2024/02/21 01:59:54;;;;;;;;;;;;;;;3.39;89.55;96981.09;7399723;19;1008;-70
2024/02/21 02:02:24;;;;;;;;;;;;;;;3.33;89.53;96991.47;7399951;19;1639;-66
2024/02/21 02:04:53;;;;;;;;;;;;;;;3.27;89.77;96987.16;7399457;19;1034;-68
2024/02/21 02:07:21;;;;;;;;;;;;;;;3.20;90.18;96990.63;7398982;19;1072;-65
2024/02/21 02:09:52;;;;;;;;;;;;;;;3.15;89.94;96980.28;7399220;19;1898;-68
2024/02/21 02:12:21;;;;;;;;;;;;;;;3.02;90.28;96973.41;7399248;19;945;-70
2024/02/21 02:14:59;;;;;;;;;;;;;;;2.99;90.00;96979.44;7397711;19;1876;-66
2024/02/21 02:17:28;;;;;;;;;;;;;;;2.96;89.25;96982.03;7398696;19;1064;-67
2024/02/21 02:19:56;;;;;;;;;;;;;;;2.86;89.80;96981.16;7398526;19;1013;-70
2024/02/21 02:22:26;;;;;;;;;;;;;;;2.82;90.01;96976.84;7398565;19;1139;-68
2024/02/21 02:24:57;;;;;;;;;;;;;;;2.82;90.25;96971.69;7398429;19;1123;-65
2024/02/21 02:27:26;;;;;;;;;;;;;;;2.80;90.14;96980.31;7398394;19;1084;-71
2024/02/21 02:29:54;;;;;;;;;;;;;;;2.82;89.89;96976.84;7398196;19;1119;-69
2024/02/21 02:32:23;;;;;;;;;;;;;;;2.82;89.64;96971.69;7398443;19;1925;-66
2024/02/21 02:34:52;;;;;;;;;;;;;;;2.74;89.46;96981.19;7397528;19;1832;-70
2024/02/21 02:37:20;;;;;;;;;;;;;;;2.72;89.63;96976.00;7398426;19;1035;-70
2024/02/21 02:39:49;;;;;;;;;;;;;;;2.71;90.30;96983.75;7397577;19;1868;-66
2024/02/21 02:42:20;;;;;;;;;;;;;;;2.73;90.14;96982.88;7397710;19;1096;-63
2024/02/21 02:44:48;;;;;;;;;;;;;;;2.74;90.50;96987.19;7398328;19;1025;-74
2024/02/21 02:47:17;;;;;;;;;;;;;;;2.71;90.75;96981.19;7398111;19;1910;-68
2024/02/21 02:49:45;;;;;;;;;;;;;;;2.72;90.75;96988.06;7398030;19;1036;-68
2024/02/21 02:52:13;;;;;;;;;;;;;;;2.75;90.59;96986.34;7395817;19;1992;-69
2024/02/21 02:54:42;;;;;;;;;;;;;;;2.75;91.05;96986.34;7397242;19;1845;-66
2024/02/21 02:57:10;;;;;;;;;;;;;;;2.80;90.60;96988.06;7397875;19;1048;-66
2024/02/21 02:59:41;;;;;;;;;;;;;;;2.84;90.54;96989.78;7397735;19;1826;-70
2024/02/21 03:02:10;;;;;;;;;;;;;;;2.88;90.41;96992.38;7397697;19;965;-69
2024/02/21 03:04:38;;;;;;;;;;;;;;;2.89;89.93;96988.06;7397169;19;1048;-72
2024/02/21 03:07:07;;;;;;;;;;;;;;;2.94;89.67;96981.16;7397280;19;1144;-65
2024/02/21 03:09:35;;;;;;;;;;;;;;;2.97;89.27;96988.91;7397329;19;1881;-64
2024/02/21 03:12:05;;;;;;;;;;;;;;;3.00;88.94;97000.97;7397470;19;989;-70
2024/02/21 03:14:34;;;;;;;;;;;;;;;2.98;88.95;96994.97;7396341;19;1852;-68
2024/02/21 03:17:05;;;;;;;;;;;;;;;2.95;88.31;96998.38;7397249;19;1028;-67
2024/02/21 03:19:33;;;;;;;;;;;;;;;2.91;88.48;96991.50;7396705;19;1395;-68
2024/02/21 03:22:02;;;;;;;;;;;;;;;2.89;88.23;96999.25;7397039;19;1807;-67
2024/02/21 03:24:31;;;;;;;;;;;;;;;2.83;88.17;96995.81;7396553;19;1151;-67
2024/02/21 03:26:59;;;;;;;;;;;;;;;2.74;88.72;96994.94;7396529;19;1076;-70
2024/02/21 03:29:28;;;;;;;;;;;;;;;2.72;88.46;96993.22;7396374;19;1147;-68
2024/02/21 03:31:56;;;;;;;;;;;;;;;2.70;88.68;96984.59;7396717;19;1807;-63
2024/02/21 03:34:27;;;;;;;;;;;;;;;2.64;88.69;96983.75;7396412;19;1902;-67
2024/02/21 03:36:55;;;;;;;;;;;;;;;2.64;88.86;96983.75;7396297;19;1107;-63
2024/02/21 03:39:24;;;;;;;;;;;;;;;2.68;88.45;96981.16;7396182;19;1914;-68
2024/02/21 03:41:53;;;;;;;;;;;;;;;2.65;88.26;96984.63;7396225;19;968;-67
2024/02/21 03:44:21;;;;;;;;;;;;;;;2.57;88.17;96983.72;7396715;19;1008;-67
2024/02/21 03:46:50;;;;;;;;;;;;;;;2.58;88.54;96981.16;7396488;19;1152;-69
2024/02/21 03:49:18;;;;;;;;;;;;;;;2.61;88.37;96976.00;7396390;19;1021;-69
2024/02/21 03:51:49;;;;;;;;;;;;;;;2.57;88.12;96976.84;7396291;19;1887;-69
2024/02/21 03:54:18;;;;;;;;;;;;;;;2.51;88.08;96979.44;7399614;19;1861;-68
2024/02/21 03:56:47;;;;;;;;;;;;;;;2.49;88.19;96971.69;7403378;19;1932;-74
2024/02/21 03:59:16;;;;;;;;;;;;;;;2.47;88.80;96975.13;7403721;19;957;-70
2024/02/21 04:01:44;;;;;;;;;;;;;;;2.49;89.19;96987.19;7403524;19;1888;-72
2024/02/21 04:04:13;;;;;;;;;;;;;;;2.46;89.05;96979.41;7403154;19;1037;-68
2024/02/21 04:06:51;;;;;;;;;;;;;;;2.47;89.52;96988.88;7403536;19;1036;-73
2024/02/21 04:09:20;;;;;;;;;;;;;;;2.49;89.02;96979.44;7403002;19;1065;-67
2024/02/21 04:11:48;;;;;;;;;;;;;;;2.52;88.98;96986.31;7402815;19;1918;-66
2024/02/21 04:14:17;;;;;;;;;;;;;;;2.55;89.37;96988.03;7402688;19;1132;-66
2024/02/21 04:16:45;;;;;;;;;;;;;;;2.55;88.66;96983.72;7399896;19;1846;-71
2024/02/21 04:19:13;;;;;;;;;;;;;;;2.49;88.57;96981.13;7402598;19;1108;-72
2024/02/21 04:21:42;;;;;;;;;;;;;;;2.43;88.91;96986.28;7402844;19;1799;-65
2024/02/21 04:24:13;;;;;;;;;;;;;;;2.41;89.25;96988.91;7402489;19;1045;-72
2024/02/21 04:26:42;;;;;;;;;;;;;;;2.44;89.44;96988.03;7402440;19;958;-66
2024/02/21 04:29:10;;;;;;;;;;;;;;;2.44;89.26;96988.03;7402605;19;1813;-73
2024/02/21 04:31:38;;;;;;;;;;;;;;;2.35;89.58;97004.38;7402166;19;1056;-65
2024/02/21 04:34:09;;;;;;;;;;;;;;;2.34;89.81;96997.47;7402270;19;1803;-67
2024/02/21 04:36:37;;;;;;;;;;;;;;;2.34;89.77;97007.78;7399954;19;1922;-65
2024/02/21 04:39:05;;;;;;;;;;;;;;;2.27;90.14;96999.19;7402287;19;1637;-69
2024/02/21 04:41:36;;;;;;;;;;;;;;;2.23;90.25;96997.47;7399678;19;1693;-70
2024/02/21 04:44:05;;;;;;;;;;;;;;;2.26;90.87;97000.06;7402155;19;1063;-66
2024/02/21 04:46:34;;;;;;;;;;;;;;;2.31;91.07;97002.63;7402006;19;1908;-67
2024/02/21 04:49:02;;;;;;;;;;;;;;;2.36;90.92;96996.63;7402144;19;1028;-66
2024/02/21 04:51:31;;;;;;;;;;;;;;;2.40;90.64;97000.94;7402389;19;950;-66
2024/02/21 04:54:00;;;;;;;;;;;;;;;2.43;90.24;96997.50;7401509;19;1025;-67
2024/02/21 04:56:39;;;;;;;;;;;;;;;2.40;90.11;96997.47;7399742;19;1844;-69
2024/02/21 04:59:10;;;;;;;;;;;;;;;2.40;90.43;97003.53;7401283;19;954;-66
2024/02/21 05:01:38;;;;;;;;;;;;;;;2.43;90.23;97013.00;7401175;19;1028;-73
2024/02/21 05:04:07;;;;;;;;;;;;;;;2.43;90.03;97010.41;7401477;19;1116;-73
2024/02/21 05:06:39;;;;;;;;;;;;;;;2.40;90.26;97019.00;7398543;19;1811;-66
2024/02/21 05:09:08;;;;;;;;;;;;;;;2.37;90.27;97019.00;7401324;19;1012;-71
2024/02/21 05:11:37;;;;;;;;;;;;;;;2.42;90.91;97024.19;7401280;19;981;-72
2024/02/21 05:14:06;;;;;;;;;;;;;;;2.44;90.72;97019.03;7400895;19;1131;-68
2024/02/21 05:16:37;;;;;;;;;;;;;;;2.44;90.87;97035.38;7399367;19;1841;-70
2024/02/21 05:19:06;;;;;;;;;;;;;;;2.48;90.99;97026.78;7400663;19;1124;-69
2024/02/21 05:21:34;;;;;;;;;;;;;;;2.50;91.13;97037.13;7400999;19;898;-65
2024/02/21 05:24:02;;;;;;;;;;;;;;;2.50;91.15;97029.38;7401006;19;973;-68
2024/02/21 05:26:31;;;;;;;;;;;;;;;2.53;91.54;97035.38;7400686;19;1823;-69
2024/02/21 05:29:00;;;;;;;;;;;;;;;2.55;91.39;97035.41;7400300;19;1040;-71
2024/02/21 05:31:29;;;;;;;;;;;;;;;2.60;91.16;97033.69;7400248;19;1985;-64
2024/02/21 05:34:04;;;;;;;;;;;;;;;2.61;91.47;97030.25;7399998;19;1130;-62
2024/02/21 05:36:32;;;;;;;;;;;;;;;2.64;91.67;97032.84;7398467;19;1846;-70
2024/02/21 05:39:01;;;;;;;;;;;;;;;2.68;91.48;97033.69;7400210;19;1176;-70
2024/02/21 05:41:29;;;;;;;;;;;;;;;2.71;91.52;97036.28;7398541;19;1894;-64
2024/02/21 05:43:58;;;;;;;;;;;;;;;2.77;91.61;97040.63;7399880;19;998;-66
2024/02/21 05:46:27;;;;;;;;;;;;;;;2.79;91.10;97041.47;7399648;19;1040;-68
2024/02/21 05:48:55;;;;;;;;;;;;;;;2.80;91.48;97042.34;7400154;19;1043;-65
2024/02/21 05:51:26;;;;;;;;;;;;;;;2.87;91.57;97041.47;7400162;19;1009;-67
2024/02/21 05:53:55;;;;;;;;;;;;;;;2.90;91.20;97044.06;7399527;19;994;-66
2024/02/21 05:56:23;;;;;;;;;;;;;;;2.94;91.14;97045.78;7398458;19;1942;-71
2024/02/21 05:58:52;;;;;;;;;;;;;;;3.00;91.00;97047.50;7399731;19;1825;-72
2024/02/21 06:01:21;;;;;;;;;;;;;;;3.02;90.91;97045.78;7399271;19;1111;-68
2024/02/21 06:03:49;;;;;;;;;;;;;;;3.06;91.05;97050.09;7399639;19;1123;-69
2024/02/21 06:06:18;;;;;;;;;;;;;;;3.11;91.22;97047.50;7399507;19;1885;-70
2024/02/21 06:08:49;;;;;;;;;;;;;;;3.14;91.17;97052.69;7399437;19;1890;-63
2024/02/21 06:11:17;;;;;;;;;;;;;;;3.22;91.23;97060.44;7398838;19;1095;-64
2024/02/21 06:13:46;;;;;;;;;;;;;;;3.22;91.53;97066.47;7399372;19;965;-64
2024/02/21 06:16:14;;;;;;;;;;;;;;;3.31;91.32;97069.91;7397026;19;1841;-70
2024/02/21 06:18:43;;;;;;;;;;;;;;;3.37;91.35;97068.19;7399176;19;973;-70
2024/02/21 06:21:12;;;;;;;;;;;;;;;3.70;92.87;97070.72;7399151;19;1009;-68
2024/02/21 06:23:40;;;;;;;;;;;;;;;4.13;91.59;97074.06;7398520;19;1418;-73
2024/02/21 06:26:11;;;;;;;;;;;;;;;4.32;90.55;97076.56;7398882;19;1806;-70
2024/02/21 06:28:40;;;;;;;;;;;;;;;4.50;89.53;97084.25;7398426;19;1084;-65
2024/02/21 06:31:08;;;;;;;;;;;;;;;5.42;87.66;97088.81;7398589;19;1838;-73
2024/02/21 06:33:37;;;;;;;;;;;;;;;6.72;80.79;97090.03;7398498;19;1935;-72
2024/02/21 06:36:06;;;;;;;;;;;;;;;8.21;72.03;97098.88;7397281;19;1848;-72
2024/02/21 06:38:34;;;;;;;;;;;;;;;9.72;66.04;97100.75;7398299;19;1794;-68
2024/02/21 06:41:03;;;;;;;;;;;;;;;11.21;60.04;97099.22;7396884;19;1800;-66
2024/02/21 06:43:34;;;;;;;;;;;;;;;12.43;55.99;97109.13;7397893;19;1109;-67
2024/02/21 06:46:02;;;;;;;;;;;;;;;13.63;51.35;97087.94;7398287;19;949;-69
2024/02/21 06:48:31;;;;;;;;;;;;;;;14.57;47.43;97086.59;7396308;19;2412;-71
2024/02/21 06:50:59;;;;;;;;;;;;;;;15.01;46.44;97093.38;7398180;19;1040;-72
2024/02/21 06:53:27;;;;;;;;;;;;;;;15.76;44.79;97090.63;7397502;19;1124;-68
2024/02/21 06:55:56;;;;;;;;;;;;;;;15.96;43.07;97091.44;7397256;19;1854;-70
2024/02/21 06:58:24;;;;;;;;;;;;;;;16.38;41.83;97093.72;7397800;19;1047;-71
2024/02/21 07:00:55;;;;;;;;;;;;;;;16.44;41.83;97087.25;7397759;19;1052;-74
2024/02/21 07:03:24;;;;;;;;;;;;;;;16.93;40.47;97079.31;7397202;19;1092;-71
2024/02/21 07:05:52;;;;;;;;;;;;;;;17.14;39.51;97075.56;7397149;19;1120;-68
2024/02/21 07:08:21;;;;;;;;;;;;;;;17.94;38.85;97079.81;7397114;19;1143;-72
2024/02/21 07:10:50;;;;;;;;;;;;;;;18.51;36.86;97077.38;7397034;19;1037;-68
2024/02/21 07:13:18;;;;;;;;;;;;;;;18.94;36.66;97071.16;7397427;19;1041;-68
2024/02/21 07:15:46;;;;;;;;;;;;;;;19.22;35.87;97072.06;7397061;19;1846;-68
2024/02/21 07:18:17;;;;;;;;;;;;;;;20.31;33.82;97074.66;7397055;19;1137;-68
2024/02/21 07:20:46;;;;;;;;;;;;;;;21.28;32.44;97070.56;7397477;19;997;-75
2024/02/21 07:23:14;;;;;;;;;;;;;;;21.85;30.76;97068.13;7397322;19;997;-65
2024/02/21 07:25:43;;;;;;;;;;;;;;;22.07;30.81;97067.34;7396782;19;1041;-69
2024/02/21 07:28:11;;;;;;;;;;;;;;;21.94;31.14;97072.78;7396752;19;1124;-69
2024/02/21 07:30:40;;;;;;;;;;;;;;;22.82;29.61;97080.25;7404569;19;1831;-72
2024/02/21 07:33:08;;;;;;;;;;;;;;;23.66;27.63;97074.53;7404449;19;1899;-72
2024/02/21 07:35:41;;;;;;;;;;;;;;;24.25;26.99;97082.09;7403844;19;1969;-66
2024/02/21 07:38:12;;;;;;;;;;;;;;;24.42;26.56;97086.88;7404005;19;1107;-68
2024/02/21 07:40:40;;;;;;;;;;;;;;;24.26;27.21;97083.81;7401937;19;1112;-67
2024/02/21 07:43:09;;;;;;;;;;;;;;;23.20;28.39;97093.28;7404007;19;1112;-70
2024/02/21 07:45:39;;;;;;;;;;;;;;;22.72;29.02;97081.97;7403874;19;1151;-66
2024/02/21 07:48:08;;;;;;;;;;;;;;;22.81;29.05;97088.38;7403630;19;1096;-65
2024/02/21 07:50:37;;;;;;;;;;;;;;;21.76;29.56;97090.97;7403953;19;1878;-71
2024/02/21 07:53:08;;;;;;;;;;;;;;;21.31;29.91;97081.81;7403545;19;1091;-69
2024/02/21 07:55:36;;;;;;;;;;;;;;;19.46;30.95;97079.38;7403822;19;1849;-72
2024/02/21 07:58:05;;;;;;;;;;;;;;;18.08;32.97;97076.34;7403817;19;1005;-72
2024/02/21 08:00:33;;;;;;;;;;;;;;;16.74;35.69;97079.44;7403723;19;1405;-64
2024/02/21 08:03:02;;;;;;;;;;;;;;;15.71;37.60;97068.91;7403229;19;1053;-69
2024/02/21 08:05:30;;;;;;;;;;;;;;;15.24;39.28;97065.06;7403607;19;1012;-69
2024/02/21 08:07:59;;;;;;;;;;;;;;;14.44;40.86;97073.97;7403341;19;1915;-65
2024/02/21 08:10:30;;;;;;;;;;;;;;;13.92;41.82;97077.97;7402927;19;1131;-66
2024/02/21 08:12:58;;;;;;;;;;;;;;;13.01;43.53;97070.25;7402832;19;1135;-70
2024/02/21 08:15:29;;;;;;;;;;;;;;;12.76;44.53;97068.56;7403146;19;2067;-73
2024/02/21 08:18:01;;;;;;;;;;;;;;;12.60;44.44;97071.78;7400546;19;1869;-67
2024/02/21 08:20:29;;;;;;;;;;;;;;;12.54;44.37;97069.41;7402630;19;1060;-67
2024/02/21 08:22:58;;;;;;;;;;;;;;;12.44;45.10;97068.91;7403009;19;1011;-72
2024/02/21 08:25:26;;;;;;;;;;;;;;;12.34;45.67;97059.66;7402856;19;1909;-67
2024/02/21 08:28:02;;;;;;;;;;;;;;;12.28;45.93;97075.63;7402901;19;965;-67
2024/02/21 08:33:26;;;;;;;;;;;;;;;11.95;46.65;97068.88;7402061;19;812;-70
2024/02/21 08:35:54;;;;;;;;;;;;;;;11.91;47.16;97075.09;7402450;19;1838;-65
2024/02/21 08:38:23;;;;;;;;;;;;;;;11.59;48.16;97070.91;7402943;19;1657;-70
2024/02/21 08:40:51;;;;;;;;;;;;;;;11.58;48.06;97077.06;7399813;19;1214;-67
2024/02/21 08:43:22;;;;;;;;;;;;;;;11.52;49.29;97079.91;7402375;19;1020;-65
2024/02/21 08:45:51;;;;;;;;;;;;;;;11.63;50.00;97082.16;7401881;19;1100;-69
2024/02/21 08:48:19;;;;;;;;;;;;;;;11.85;48.48;97081.44;7402119;19;1059;-70
2024/02/21 08:50:47;;;;;;;;;;;;;;;11.70;47.65;97074.94;7401659;19;1001;-66
2024/02/21 08:53:16;;;;;;;;;;;;;;;11.49;47.91;97078.25;7401564;19;1084;-67
2024/02/21 08:55:45;;;;;;;;;;;;;;;11.35;48.48;97070.81;7401358;19;1065;-70
2024/02/21 08:58:14;;;;;;;;;;;;;;;11.66;48.68;97075.97;7398953;19;1861;-67
2024/02/21 09:00:45;;;;;;;;;;;;;;;11.89;47.88;97067.28;7401337;19;1120;-69
2024/02/21 09:03:14;;;;;;;;;;;;;;;11.99;46.95;97075.72;7401202;19;1347;-70
2024/02/21 09:05:42;;;;;;;;;;;;;;;11.98;45.93;97072.22;7401959;19;1666;-70
2024/02/21 09:08:11;;;;;;;;;;;;;;;11.97;46.79;97075.75;7401055;19;1040;-68
2024/02/21 09:10:39;;;;;;;;;;;;;;;12.04;45.36;97070.31;7401230;19;1910;-69
2024/02/21 09:13:08;;;;;;;;;;;;;;;12.17;46.43;97078.63;7401266;19;965;-67
2024/02/21 09:15:36;;;;;;;;;;;;;;;12.24;46.61;97077.47;7400802;19;1060;-72
2024/02/21 09:18:08;;;;;;;;;;;;;;;12.01;44.57;97072.13;7399075;19;1853;-71
2024/02/21 09:20:36;;;;;;;;;;;;;;;11.90;45.09;97070.78;7400678;19;992;-72
2024/02/21 09:23:04;;;;;;;;;;;;;;;12.09;43.93;97069.25;7400573;19;1119;-66
2024/02/21 09:25:33;;;;;;;;;;;;;;;12.29;42.49;97070.31;7400852;19;1788;-68
2024/02/21 09:28:02;;;;;;;;;;;;;;;12.38;42.40;97071.75;7400897;19;910;-69
2024/02/21 09:30:31;;;;;;;;;;;;;;;12.63;42.97;97055.06;7400904;19;1830;-75
2024/02/21 09:32:59;;;;;;;;;;;;;;;12.81;40.88;97068.41;7400794;19;1907;-67
2024/02/21 09:35:31;;;;;;;;;;;;;;;12.84;42.38;97058.63;7400737;19;1008;-71
2024/02/21 09:37:59;;;;;;;;;;;;;;;13.03;40.88;97052.66;7398318;19;1851;-70
2024/02/21 09:40:27;;;;;;;;;;;;;;;13.09;40.91;97057.66;7399088;19;1388;-71
2024/02/21 09:43:04;;;;;;;;;;;;;;;13.14;41.09;97060.97;7399887;19;1021;-68
2024/02/21 09:45:32;;;;;;;;;;;;;;;13.01;41.22;97063.22;7399935;19;1104;-70
2024/02/21 09:48:15;;;;;;;;;;;;;;;12.79;41.31;97063.19;7399862;19;1172;-72
2024/02/21 09:50:46;;;;;;;;;;;;;;;12.45;42.02;97067.97;7399223;19;1053;-71
2024/02/21 09:53:15;;;;;;;;;;;;;;;12.26;42.15;97065.19;7398445;19;1068;-67
2024/02/21 09:55:44;;;;;;;;;;;;;;;12.07;42.31;97065.81;7399450;19;1155;-71
2024/02/21 09:58:13;;;;;;;;;;;;;;;11.86;42.69;97059.56;7397651;19;1846;-69
2024/02/21 10:00:41;;;;;;;;;;;;;;;11.56;43.17;97059.72;7399156;19;1136;-63
2024/02/21 10:03:12;;;;;;;;;;;;;;;11.38;43.46;97057.63;7399458;19;1881;-68
2024/02/21 10:05:41;;;;;;;;;;;;;;;11.15;44.08;97053.16;7399596;19;1048;-68
2024/02/21 10:08:16;;;;;;;;;;;;;;;11.07;44.37;97057.75;7399261;19;1931;-70
2024/02/21 10:10:45;;;;;;;;;;;;;;;11.02;43.88;97055.31;7398953;19;997;-70
2024/02/21 10:13:24;;;;;;;;;;;;;;;10.82;43.99;97050.69;7399130;19;1841;-68
2024/02/21 10:16:03;;;;;;;;;;;;;;;10.60;44.43;97056.59;7398810;19;1025;-71
2024/02/21 10:18:31;;;;;;;;;;;;;;;10.51;44.35;97051.63;7396913;19;1858;-66
2024/02/21 10:21:03;;;;;;;;;;;;;;;10.44;44.92;97049.16;7399083;19;1028;-67
2024/02/21 10:23:43;;;;;;;;;;;;;;;10.64;43.44;97045.13;7398472;19;1147;-65
2024/02/21 10:26:11;;;;;;;;;;;;;;;10.84;42.23;97039.25;7398519;19;1080;-68
2024/02/21 10:28:42;;;;;;;;;;;;;;;11.07;42.19;97028.97;7398726;19;1135;-72
2024/02/21 10:31:10;;;;;;;;;;;;;;;11.19;41.57;97027.72;7398178;19;1040;-70
2024/02/21 10:33:39;;;;;;;;;;;;;;;11.28;41.55;97022.19;7399120;19;1658;-68
2024/02/21 10:36:11;;;;;;;;;;;;;;;11.39;39.26;97019.22;7398687;19;1012;-73
2024/02/21 10:38:45;;;;;;;;;;;;;;;11.42;39.41;97003.41;7396431;19;1857;-72
2024/02/21 10:41:16;;;;;;;;;;;;;;;11.43;42.16;97004.22;7396574;19;1193;-73
2024/02/21 10:43:44;;;;;;;;;;;;;;;11.54;40.60;97007.34;7397831;19;1123;-71
2024/02/21 10:46:13;;;;;;;;;;;;;;;11.60;40.32;96998.41;7397987;19;1013;-70
2024/02/21 10:48:45;;;;;;;;;;;;;;;11.58;42.24;97000.22;7398447;19;941;-66
2024/02/21 10:51:17;;;;;;;;;;;;;;;11.77;40.00;96995.19;7398209;19;1072;-72
2024/02/21 10:53:53;;;;;;;;;;;;;;;11.78;39.34;96986.44;7398047;19;1008;-70
2024/02/21 10:56:25;;;;;;;;;;;;;;;11.86;39.09;96988.78;7397646;19;1116;-66
2024/02/21 10:58:55;;;;;;;;;;;;;;;12.04;39.26;96975.91;7396257;19;1849;-71
2024/02/21 11:01:26;;;;;;;;;;;;;;;12.34;40.38;96963.44;7397357;19;1080;-71
2024/02/21 11:03:56;;;;;;;;;;;;;;;12.43;41.18;96964.00;7397192;19;1088;-75
2024/02/21 11:06:25;;;;;;;;;;;;;;;12.68;40.81;96966.53;7397242;19;1073;-75
2024/02/21 11:09:05;;;;;;;;;;;;;;;12.93;38.41;96962.91;7397468;19;1847;-71
2024/02/21 11:11:37;;;;;;;;;;;;;;;12.72;38.34;96959.38;7397141;19;1052;-73
2024/02/21 11:14:09;;;;;;;;;;;;;;;12.23;39.30;96960.38;7396790;19;1652;-68
2024/02/21 11:16:38;;;;;;;;;;;;;;;12.02;38.91;96955.00;7396839;19;1147;-67
2024/02/21 11:19:07;;;;;;;;;;;;;;;11.88;40.82;96955.50;7395020;19;1861;-68
2024/02/21 11:21:36;;;;;;;;;;;;;;;11.95;40.75;96950.91;7397017;19;1849;-72
2024/02/21 11:24:07;;;;;;;;;;;;;;;12.05;41.46;96956.63;7397153;19;1047;-73
2024/02/21 11:26:36;;;;;;;;;;;;;;;12.01;41.92;96956.75;7396709;19;1053;-68
2024/02/21 11:29:06;;;;;;;;;;;;;;;11.92;42.25;96951.84;7397158;19;957;-73
2024/02/21 11:31:45;;;;;;;;;;;;;;;11.84;42.43;96953.91;7397070;19;950;-72
2024/02/21 11:34:15;;;;;;;;;;;;;;;11.84;40.89;96948.66;7397021;19;1203;-74
2024/02/21 11:36:50;;;;;;;;;;;;;;;11.85;41.15;96948.59;7396574;19;1036;-68
2024/02/21 11:39:28;;;;;;;;;;;;;;;11.88;42.03;96953.75;7396573;19;1229;-67
2024/02/21 11:42:04;;;;;;;;;;;;;;;11.79;42.13;96953.19;7396827;19;1063;-68
2024/02/21 11:44:32;;;;;;;;;;;;;;;11.57;42.77;96952.22;7396169;19;1021;-70
2024/02/21 11:47:01;;;;;;;;;;;;;;;11.36;43.78;96951.22;7396644;19;1008;-70
2024/02/21 11:49:31;;;;;;;;;;;;;;;11.27;44.79;96947.16;7396339;19;1883;-73
2024/02/21 11:52:04;;;;;;;;;;;;;;;11.25;44.93;96951.56;7396528;19;1076;-67
2024/02/21 11:54:35;;;;;;;;;;;;;;;11.24;44.65;96949.88;7395944;19;1006;-66
2024/02/21 11:57:04;;;;;;;;;;;;;;;11.08;45.51;96946.91;7395711;19;1850;-70
2024/02/21 11:59:32;;;;;;;;;;;;;;;11.06;46.50;96941.72;7395879;19;1021;-75
2024/02/21 12:02:03;;;;;;;;;;;;;;;11.16;46.19;96938.78;7396159;19;970;-71
2024/02/21 12:04:31;;;;;;;;;;;;;;;11.11;46.97;96947.66;7395634;19;1120;-68
2024/02/21 12:07:00;;;;;;;;;;;;;;;10.92;47.26;96942.19;7395610;19;1064;-66
2024/02/21 12:09:29;;;;;;;;;;;;;;;10.92;49.27;96939.56;7395483;19;1053;-69
2024/02/21 12:12:04;;;;;;;;;;;;;;;10.89;49.79;96949.28;7395894;19;1811;-75
2024/02/21 12:14:33;;;;;;;;;;;;;;;10.96;49.10;96935.09;7396578;19;1028;-69
2024/02/21 12:17:03;;;;;;;;;;;;;;;10.71;48.84;96938.50;7402810;19;1864;-72
2024/02/21 12:19:32;;;;;;;;;;;;;;;10.66;48.59;96932.56;7403235;19;972;-75
2024/02/21 12:22:05;;;;;;;;;;;;;;;10.67;48.90;96929.91;7403027;19;1040;-74
2024/02/21 12:24:34;;;;;;;;;;;;;;;10.71;49.65;96930.66;7402650;19;1041;-68
2024/02/21 12:27:05;;;;;;;;;;;;;;;10.76;49.65;96930.50;7402785;19;921;-67
2024/02/21 12:29:34;;;;;;;;;;;;;;;10.67;50.04;96924.69;7402435;19;1029;-73
2024/02/21 12:32:03;;;;;;;;;;;;;;;10.74;50.50;96928.81;7402741;19;948;-71
2024/02/21 12:34:32;;;;;;;;;;;;;;;10.72;50.09;96933.22;7402750;19;1063;-70
2024/02/21 12:37:01;;;;;;;;;;;;;;;10.73;49.50;96934.09;7402622;19;1036;-69
2024/02/21 12:39:30;;;;;;;;;;;;;;;10.63;50.19;96941.38;7399599;19;1849;-70
2024/02/21 12:41:58;;;;;;;;;;;;;;;10.49;49.70;96937.44;7402035;19;1012;-71
2024/02/21 12:44:29;;;;;;;;;;;;;;;10.46;50.63;96928.81;7401985;19;1060;-70
2024/02/21 12:46:58;;;;;;;;;;;;;;;10.45;50.40;96929.69;7402331;19;1032;-69
2024/02/21 12:49:29;;;;;;;;;;;;;;;10.38;49.87;96930.81;7401692;19;1263;-72
2024/02/21 12:51:58;;;;;;;;;;;;;;;10.46;50.48;96926.22;7401686;19;1158;-71
2024/02/21 12:54:26;;;;;;;;;;;;;;;10.52;50.88;96927.78;7401860;19;1809;-70
2024/02/21 12:56:54;;;;;;;;;;;;;;;10.49;51.12;96926.97;7402000;19;1815;-75
2024/02/21 12:59:23;;;;;;;;;;;;;;;10.47;50.08;96917.44;7399273;19;1839;-65
2024/02/21 13:01:54;;;;;;;;;;;;;;;10.40;50.12;96922.00;7401772;19;1914;-70
2024/02/21 13:04:23;;;;;;;;;;;;;;;10.34;49.94;96915.22;7401320;19;1096;-70
2024/02/21 13:06:52;;;;;;;;;;;;;;;10.30;50.19;96920.56;7401258;19;1087;-69
2024/02/21 13:09:20;;;;;;;;;;;;;;;10.40;50.83;96921.13;7401454;19;1619;-70
2024/02/21 13:11:51;;;;;;;;;;;;;;;10.48;50.05;96920.00;7401100;19;1134;-73
2024/02/21 13:14:19;;;;;;;;;;;;;;;10.55;49.99;96912.84;7400927;19;1072;-70
2024/02/21 13:16:48;;;;;;;;;;;;;;;10.58;49.62;96911.88;7401303;19;984;-72